createdAt,value
2016-10-21T00:00:04.460Z,9.8
2016-10-21T00:00:14.455Z,9.8
2016-10-21T00:00:24.446Z,9.8
2016-10-21T00:00:34.451Z,9.8
2016-10-21T00:00:44.434Z,9.8
2016-10-21T00:00:54.428Z,9.8
2016-10-21T00:01:04.424Z,9.8
2016-10-21T00:01:14.417Z,9.8
2016-10-21T00:01:24.414Z,9.8
2016-10-21T00:01:34.414Z,9.8
2016-10-21T00:01:44.400Z,9.8
2016-10-21T00:01:54.397Z,9.8
2016-10-21T00:02:04.390Z,9.8
2016-10-21T00:02:14.386Z,9.8
2016-10-21T00:02:24.376Z,9.8
2016-10-21T00:02:34.381Z,9.8
2016-10-21T00:02:44.366Z,9.8
2016-10-21T00:02:54.397Z,9.8
2016-10-21T00:03:04.357Z,9.8
2016-10-21T00:03:14.347Z,9.8
2016-10-21T00:03:24.341Z,9.8
2016-10-21T00:03:34.340Z,9.8
2016-10-21T00:03:44.330Z,9.8
2016-10-21T00:03:54.326Z,9.8
2016-10-21T00:04:04.318Z,9.8
2016-10-21T00:04:14.315Z,9.8
2016-10-21T00:04:24.305Z,9.8
2016-10-21T00:04:34.313Z,9.8
2016-10-21T00:04:44.295Z,9.8
2016-10-21T00:04:54.291Z,9.8
2016-10-21T00:05:04.285Z,9.8
2016-10-21T00:05:14.277Z,9.8
2016-10-21T00:05:24.272Z,9.8
2016-10-21T00:05:34.300Z,9.8
2016-10-21T00:05:44.260Z,9.8
2016-10-21T00:05:54.254Z,9.8
2016-10-21T00:06:04.250Z,9.8
2016-10-21T00:06:14.247Z,9.8
2016-10-21T00:06:24.237Z,9.8
2016-10-21T00:06:34.231Z,9.8
2016-10-21T00:06:44.224Z,9.8
2016-10-21T00:06:54.222Z,9.8
2016-10-21T00:07:04.216Z,9.8
2016-10-21T00:07:14.208Z,9.8
2016-10-21T00:07:24.201Z,9.8
2016-10-21T00:07:34.199Z,9.8
2016-10-21T00:07:44.191Z,9.8
2016-10-21T00:07:54.192Z,9.8
2016-10-21T00:08:04.185Z,9.8
2016-10-21T00:08:14.175Z,9.8
2016-10-21T00:08:24.189Z,9.8
2016-10-21T00:08:34.160Z,9.8
2016-10-21T00:08:44.155Z,9.8
2016-10-21T00:08:54.150Z,9.8
2016-10-21T00:09:04.146Z,9.8
2016-10-21T00:09:14.138Z,9.8
2016-10-21T00:09:24.133Z,9.8
2016-10-21T00:09:34.127Z,9.8
2016-10-21T00:09:44.120Z,9.8
2016-10-21T00:09:54.118Z,9.8
2016-10-21T00:10:04.110Z,9.8
2016-10-21T00:10:14.106Z,9.8
2016-10-21T00:10:24.118Z,9.8
2016-10-21T00:10:34.074Z,9.8
2016-10-21T00:10:44.069Z,9.8
2016-10-21T00:10:54.102Z,9.8
2016-10-21T00:11:04.058Z,9.8
2016-10-21T00:11:14.051Z,9.8
2016-10-21T00:11:24.048Z,9.8
2016-10-21T00:11:34.040Z,9.8
2016-10-21T00:11:44.034Z,9.8
2016-10-21T00:11:54.029Z,9.8
2016-10-21T00:12:04.022Z,9.8
2016-10-21T00:12:14.015Z,9.8
2016-10-21T00:12:24.011Z,9.8
2016-10-21T00:12:34.005Z,9.8
2016-10-21T00:12:43.998Z,9.8
2016-10-21T00:12:53.993Z,9.8
2016-10-21T00:13:03.991Z,9.8
2016-10-21T00:13:13.981Z,9.8
2016-10-21T00:13:24.012Z,9.8
2016-10-21T00:13:33.970Z,9.8
2016-10-21T00:13:43.963Z,9.8
2016-10-21T00:13:53.963Z,9.8
2016-10-21T00:14:03.952Z,9.8
2016-10-21T00:14:13.947Z,9.8
2016-10-21T00:14:23.941Z,9.8
2016-10-21T00:14:33.936Z,9.8
2016-10-21T00:14:43.929Z,9.8
2016-10-21T00:14:53.923Z,9.8
2016-10-21T00:15:03.918Z,9.8
2016-10-21T00:15:13.913Z,9.8
2016-10-21T00:15:24.243Z,9.8
2016-10-21T00:15:33.900Z,9.8
2016-10-21T00:15:43.893Z,9.8
2016-10-21T00:15:53.888Z,9.8
2016-10-21T00:16:03.884Z,9.8
2016-10-21T00:16:13.878Z,9.8
2016-10-21T00:16:23.871Z,9.8
2016-10-21T00:16:34.201Z,9.8
2016-10-21T00:16:43.858Z,9.8
2016-10-21T00:16:53.854Z,9.8
2016-10-21T00:17:03.849Z,9.8
2016-10-21T00:17:13.870Z,9.8
2016-10-21T00:17:23.836Z,9.8
2016-10-21T00:17:33.830Z,9.8
2016-10-21T00:17:43.826Z,9.8
2016-10-21T00:17:53.818Z,9.8
2016-10-21T00:18:03.812Z,9.8
2016-10-21T00:18:13.806Z,9.8
2016-10-21T00:18:23.800Z,9.8
2016-10-21T00:18:33.796Z,9.8
2016-10-21T00:18:43.788Z,9.8
2016-10-21T00:18:53.784Z,9.8
2016-10-21T00:19:03.779Z,9.8
2016-10-21T00:19:13.772Z,9.8
2016-10-21T00:19:23.794Z,9.8
2016-10-21T00:19:33.762Z,9.8
2016-10-21T00:19:43.754Z,9.8
2016-10-21T00:19:53.772Z,9.8
2016-10-21T00:20:03.742Z,9.8
2016-10-21T00:20:13.738Z,9.8
2016-10-21T00:20:23.733Z,9.8
2016-10-21T00:20:33.726Z,9.8
2016-10-21T00:20:43.720Z,9.8
2016-10-21T00:20:53.714Z,9.8
2016-10-21T00:21:03.729Z,9.8
2016-10-21T00:21:13.702Z,9.8
2016-10-21T00:21:24.063Z,9.7
2016-10-21T00:21:33.689Z,9.7
2016-10-21T00:21:43.684Z,9.8
2016-10-21T00:21:53.679Z,9.8
2016-10-21T00:22:03.673Z,9.8
2016-10-21T00:22:13.666Z,9.8
2016-10-21T00:22:23.663Z,9.8
2016-10-21T00:22:33.655Z,9.8
2016-10-21T00:22:43.646Z,9.8
2016-10-21T00:22:53.643Z,9.8
2016-10-21T00:23:03.637Z,9.8
2016-10-21T00:23:13.632Z,9.8
2016-10-21T00:23:23.659Z,9.8
2016-10-21T00:23:33.620Z,9.8
2016-10-21T00:23:43.615Z,9.8
2016-10-21T00:23:53.609Z,9.8
2016-10-21T00:24:03.601Z,9.8
2016-10-21T00:24:13.597Z,9.8
2016-10-21T00:24:23.591Z,9.8
2016-10-21T00:24:33.585Z,9.7
2016-10-21T00:24:43.579Z,9.7
2016-10-21T00:24:53.607Z,9.7
2016-10-21T00:25:03.568Z,9.7
2016-10-21T00:25:13.562Z,9.7
2016-10-21T00:25:23.558Z,9.7
2016-10-21T00:25:33.550Z,9.8
2016-10-21T00:25:43.544Z,9.8
2016-10-21T00:25:53.538Z,9.7
2016-10-21T00:26:03.539Z,9.7
2016-10-21T00:26:13.526Z,9.8
2016-10-21T00:26:23.521Z,9.8
2016-10-21T00:26:33.514Z,9.8
2016-10-21T00:26:43.510Z,9.8
2016-10-21T00:26:53.507Z,9.8
2016-10-21T00:27:03.833Z,9.8
2016-10-21T00:27:13.491Z,9.8
2016-10-21T00:27:23.486Z,9.8
2016-10-21T00:27:33.480Z,9.8
2016-10-21T00:27:43.504Z,9.8
2016-10-21T00:27:53.469Z,9.8
2016-10-21T00:28:03.462Z,9.8
2016-10-21T00:28:13.458Z,9.8
2016-10-21T00:28:23.450Z,9.8
2016-10-21T00:28:33.446Z,9.8
2016-10-21T00:28:43.439Z,9.8
2016-10-21T00:28:53.433Z,9.8
2016-10-21T00:29:03.763Z,9.8
2016-10-21T00:29:13.421Z,9.8
2016-10-21T00:29:23.416Z,9.8
2016-10-21T00:29:33.410Z,9.8
2016-10-21T00:29:43.406Z,9.8
2016-10-21T00:29:53.399Z,9.8
2016-10-21T00:30:03.727Z,9.8
2016-10-21T00:30:13.386Z,9.8
2016-10-21T00:30:23.380Z,9.8
2016-10-21T00:30:33.375Z,9.8
2016-10-21T00:30:43.370Z,9.8
2016-10-21T00:30:53.363Z,9.7
2016-10-21T00:31:03.386Z,9.7
2016-10-21T00:31:13.352Z,9.7
2016-10-21T00:31:23.348Z,9.8
2016-10-21T00:31:33.341Z,9.8
2016-10-21T00:31:43.334Z,9.8
2016-10-21T00:31:53.327Z,9.8
2016-10-21T00:32:03.322Z,9.8
2016-10-21T00:32:13.317Z,9.8
2016-10-21T00:32:23.311Z,9.7
2016-10-21T00:32:33.309Z,9.7
2016-10-21T00:32:43.300Z,9.7
2016-10-21T00:32:53.318Z,9.7
2016-10-21T00:33:03.288Z,9.7
2016-10-21T00:33:13.281Z,9.7
2016-10-21T00:33:23.276Z,9.8
2016-10-21T00:33:33.270Z,9.8
2016-10-21T00:33:43.263Z,9.7
2016-10-21T00:33:53.285Z,9.7
2016-10-21T00:34:03.253Z,9.7
2016-10-21T00:34:13.246Z,9.7
2016-10-21T00:34:23.241Z,9.7
2016-10-21T00:34:33.234Z,9.7
2016-10-21T00:34:43.231Z,9.7
2016-10-21T00:34:53.223Z,9.7
2016-10-21T00:35:03.217Z,9.7
2016-10-21T00:35:13.212Z,9.7
2016-10-21T00:35:23.205Z,9.7
2016-10-21T00:35:33.199Z,9.7
2016-10-21T00:35:43.532Z,9.7
2016-10-21T00:35:53.189Z,9.7
2016-10-21T00:36:03.182Z,9.7
2016-10-21T00:36:13.210Z,9.7
2016-10-21T00:36:23.171Z,9.7
2016-10-21T00:36:33.165Z,9.7
2016-10-21T00:36:43.159Z,9.7
2016-10-21T00:36:53.154Z,9.7
2016-10-21T00:37:03.149Z,9.7
2016-10-21T00:37:13.141Z,9.7
2016-10-21T00:37:23.135Z,9.7
2016-10-21T00:37:33.131Z,9.6
2016-10-21T00:37:43.123Z,9.6
2016-10-21T00:37:53.454Z,9.6
2016-10-21T00:38:03.112Z,9.6
2016-10-21T00:38:13.106Z,9.6
2016-10-21T00:38:23.101Z,9.6
2016-10-21T00:38:33.094Z,9.6
2016-10-21T00:38:43.090Z,9.6
2016-10-21T00:38:53.084Z,9.6
2016-10-21T00:39:03.077Z,9.6
2016-10-21T00:39:13.072Z,9.6
2016-10-21T00:39:23.065Z,9.7
2016-10-21T00:39:33.059Z,9.7
2016-10-21T00:39:43.055Z,9.7
2016-10-21T00:39:53.049Z,9.7
2016-10-21T00:40:03.042Z,9.7
2016-10-21T00:40:13.038Z,9.6
2016-10-21T00:40:23.031Z,9.6
2016-10-21T00:40:33.025Z,9.6
2016-10-21T00:40:43.019Z,9.7
2016-10-21T00:40:53.013Z,9.7
2016-10-21T00:41:03.039Z,9.7
2016-10-21T00:41:13.001Z,9.7
2016-10-21T00:41:22.996Z,9.7
2016-10-21T00:41:32.989Z,9.7
2016-10-21T00:41:42.989Z,9.6
2016-10-21T00:41:52.978Z,9.7
2016-10-21T00:42:02.974Z,9.7
2016-10-21T00:42:12.966Z,9.6
2016-10-21T00:42:22.961Z,9.6
2016-10-21T00:42:32.954Z,9.6
2016-10-21T00:42:42.949Z,9.6
2016-10-21T00:42:52.974Z,9.6
2016-10-21T00:43:02.937Z,9.6
2016-10-21T00:43:12.932Z,9.6
2016-10-21T00:43:22.926Z,9.6
2016-10-21T00:43:32.921Z,9.6
2016-10-21T00:43:42.923Z,9.6
2016-10-21T00:43:52.908Z,9.6
2016-10-21T00:44:02.902Z,9.6
2016-10-21T00:44:12.896Z,9.6
2016-10-21T00:44:22.890Z,9.6
2016-10-21T00:44:32.884Z,9.6
2016-10-21T00:44:42.880Z,9.6
2016-10-21T00:44:52.873Z,9.6
2016-10-21T00:45:02.869Z,9.6
2016-10-21T00:45:12.862Z,9.6
2016-10-21T00:45:22.856Z,9.6
2016-10-21T00:45:32.853Z,9.6
2016-10-21T00:45:42.844Z,9.6
2016-10-21T00:45:52.839Z,9.6
2016-10-21T00:46:02.833Z,9.6
2016-10-21T00:46:13.161Z,9.6
2016-10-21T00:46:22.820Z,9.6
2016-10-21T00:46:32.815Z,9.6
2016-10-21T00:46:42.809Z,9.6
2016-10-21T00:46:52.803Z,9.6
2016-10-21T00:47:02.798Z,9.6
2016-10-21T00:47:12.791Z,9.6
2016-10-21T00:47:22.785Z,9.6
2016-10-21T00:47:32.779Z,9.6
2016-10-21T00:47:42.774Z,9.6
2016-10-21T00:47:52.769Z,9.6
2016-10-21T00:48:02.762Z,9.6
2016-10-21T00:48:12.757Z,9.6
2016-10-21T00:48:22.752Z,9.6
2016-10-21T00:48:32.746Z,9.6
2016-10-21T00:48:42.737Z,9.6
2016-10-21T00:48:52.733Z,9.6
2016-10-21T00:49:02.728Z,9.6
2016-10-21T00:49:12.721Z,9.6
2016-10-21T00:49:22.715Z,9.6
2016-10-21T00:49:32.711Z,9.6
2016-10-21T00:49:42.707Z,9.6
2016-10-21T00:49:52.699Z,9.6
2016-10-21T00:50:02.692Z,9.6
2016-10-21T00:50:12.687Z,9.6
2016-10-21T00:50:22.680Z,9.6
2016-10-21T00:50:32.674Z,9.6
2016-10-21T00:50:42.669Z,9.6
2016-10-21T00:50:52.664Z,9.6
2016-10-21T00:51:02.659Z,9.6
2016-10-21T00:51:12.650Z,9.5
2016-10-21T00:51:22.646Z,9.5
2016-10-21T00:51:32.640Z,9.5
2016-10-21T00:51:42.971Z,9.5
2016-10-21T00:51:52.628Z,9.5
2016-10-21T00:52:02.624Z,9.5
2016-10-21T00:52:12.616Z,9.5
2016-10-21T00:52:22.610Z,9.5
2016-10-21T00:52:32.605Z,9.5
2016-10-21T00:52:42.933Z,9.5
2016-10-21T00:52:52.595Z,9.5
2016-10-21T00:53:02.588Z,9.5
2016-10-21T00:53:12.606Z,9.5
2016-10-21T00:53:22.576Z,9.5
2016-10-21T00:53:32.570Z,9.5
2016-10-21T00:53:42.564Z,9.5
2016-10-21T00:53:52.559Z,9.5
2016-10-21T00:54:02.552Z,9.5
2016-10-21T00:54:12.545Z,9.5
2016-10-21T00:54:22.541Z,9.5
2016-10-21T00:54:32.535Z,9.5
2016-10-21T00:54:42.528Z,9.5
2016-10-21T00:54:52.532Z,9.5
2016-10-21T00:55:02.518Z,9.5
2016-10-21T00:55:12.511Z,9.5
2016-10-21T00:55:22.507Z,9.5
2016-10-21T00:55:32.502Z,9.5
2016-10-21T00:55:42.496Z,9.5
2016-10-21T00:55:52.486Z,9.5
2016-10-21T00:56:02.482Z,9.5
2016-10-21T00:56:12.477Z,9.5
2016-10-21T00:56:22.471Z,9.5
2016-10-21T00:56:32.466Z,9.5
2016-10-21T00:56:42.460Z,9.5
2016-10-21T00:56:52.455Z,9.5
2016-10-21T00:57:02.448Z,9.5
2016-10-21T00:57:12.443Z,9.5
2016-10-21T00:57:22.437Z,9.5
2016-10-21T00:57:32.430Z,9.5
2016-10-21T00:57:42.423Z,9.5
2016-10-21T00:57:52.419Z,9.5
2016-10-21T00:58:02.412Z,9.5
2016-10-21T00:58:12.407Z,9.5
2016-10-21T00:58:22.403Z,9.5
2016-10-21T00:58:32.396Z,9.5
2016-10-21T00:58:42.389Z,9.5
2016-10-21T00:58:52.385Z,9.5
2016-10-21T00:59:02.378Z,9.5
2016-10-21T00:59:12.372Z,9.5
2016-10-21T00:59:22.366Z,9.5
2016-10-21T00:59:32.359Z,9.5
2016-10-21T00:59:42.355Z,9.5
2016-10-21T00:59:52.684Z,9.5
2016-10-21T01:00:02.371Z,9.4
2016-10-21T01:00:12.341Z,9.4
2016-10-21T01:00:22.331Z,9.4
2016-10-21T01:00:32.325Z,9.4
2016-10-21T01:00:42.319Z,9.4
2016-10-21T01:00:52.313Z,9.4
2016-10-21T01:01:02.308Z,9.4
2016-10-21T01:01:12.302Z,9.4
2016-10-21T01:01:22.296Z,9.4
2016-10-21T01:01:32.291Z,9.4
2016-10-21T01:01:42.285Z,9.4
2016-10-21T01:01:52.279Z,9.4
2016-10-21T01:02:02.275Z,9.4
2016-10-21T01:02:12.267Z,9.4
2016-10-21T01:02:22.260Z,9.4
2016-10-21T01:02:32.254Z,9.4
2016-10-21T01:02:42.248Z,9.4
2016-10-21T01:02:52.244Z,9.4
2016-10-21T01:03:02.572Z,9.4
2016-10-21T01:03:12.258Z,9.4
2016-10-21T01:03:22.225Z,9.4
2016-10-21T01:03:32.223Z,9.4
2016-10-21T01:03:42.215Z,9.3
2016-10-21T01:03:52.208Z,9.3
2016-10-21T01:04:02.203Z,9.3
2016-10-21T01:04:12.198Z,9.3
2016-10-21T01:04:22.189Z,9.3
2016-10-21T01:04:32.185Z,9.3
2016-10-21T01:04:42.179Z,9.3
2016-10-21T01:04:52.173Z,9.3
2016-10-21T01:05:02.170Z,9.3
2016-10-21T01:05:12.162Z,9.3
2016-10-21T01:05:22.156Z,9.3
2016-10-21T01:05:32.150Z,9.3
2016-10-21T01:05:42.176Z,9.3
2016-10-21T01:05:52.141Z,9.3
2016-10-21T01:06:02.132Z,9.3
2016-10-21T01:06:12.129Z,9.3
2016-10-21T01:06:22.122Z,9.3
2016-10-21T01:06:32.154Z,9.3
2016-10-21T01:06:42.107Z,9.3
2016-10-21T01:06:52.104Z,9.3
2016-10-21T01:07:02.098Z,9.3
2016-10-21T01:07:12.426Z,9.3
2016-10-21T01:07:22.085Z,9.3
2016-10-21T01:07:32.081Z,9.3
2016-10-21T01:07:42.075Z,9.3
2016-10-21T01:07:52.068Z,9.3
2016-10-21T01:08:02.065Z,9.3
2016-10-21T01:08:12.058Z,9.3
2016-10-21T01:08:22.050Z,9.3
2016-10-21T01:08:32.381Z,9.3
2016-10-21T01:08:42.039Z,9.3
2016-10-21T01:08:52.033Z,9.3
2016-10-21T01:09:02.028Z,9.3
2016-10-21T01:09:12.024Z,9.3
2016-10-21T01:09:22.015Z,9.3
2016-10-21T01:09:32.010Z,9.3
2016-10-21T01:09:42.003Z,9.3
2016-10-21T01:09:51.998Z,9.2
2016-10-21T01:10:01.996Z,9.2
2016-10-21T01:10:11.986Z,9.2
2016-10-21T01:10:21.981Z,9.2
2016-10-21T01:10:31.976Z,9.2
2016-10-21T01:10:41.969Z,9.2
2016-10-21T01:10:51.963Z,9.2
2016-10-21T01:11:01.958Z,9.2
2016-10-21T01:11:11.954Z,9.2
2016-10-21T01:11:21.946Z,9.2
2016-10-21T01:11:31.943Z,9.2
2016-10-21T01:11:41.934Z,9.2
2016-10-21T01:11:51.929Z,9.2
2016-10-21T01:12:01.922Z,9.2
2016-10-21T01:12:11.916Z,9.2
2016-10-21T01:12:21.911Z,9.1
2016-10-21T01:12:31.905Z,9.1
2016-10-21T01:12:41.897Z,9.1
2016-10-21T01:12:51.894Z,9.1
2016-10-21T01:13:01.887Z,9.1
2016-10-21T01:13:11.881Z,9.1
2016-10-21T01:13:21.875Z,9.1
2016-10-21T01:13:31.871Z,9.1
2016-10-21T01:13:41.901Z,9.1
2016-10-21T01:13:51.858Z,9.1
2016-10-21T01:14:01.853Z,9.1
2016-10-21T01:14:11.848Z,9.1
2016-10-21T01:14:21.841Z,9.1
2016-10-21T01:14:31.834Z,9.1
2016-10-21T01:14:41.830Z,9.1
2016-10-21T01:14:51.823Z,9.1
2016-10-21T01:15:01.817Z,9.1
2016-10-21T01:15:11.812Z,9.1
2016-10-21T01:15:21.806Z,9.1
2016-10-21T01:15:31.800Z,9.1
2016-10-21T01:15:41.793Z,9.1
2016-10-21T01:15:51.787Z,9.1
2016-10-21T01:16:02.117Z,9.1
2016-10-21T01:16:11.777Z,9.1
2016-10-21T01:16:21.771Z,9.1
2016-10-21T01:16:31.766Z,9.1
2016-10-21T01:16:41.759Z,9.1
2016-10-21T01:16:51.753Z,9.1
2016-10-21T01:17:01.747Z,9.1
2016-10-21T01:17:11.744Z,9.1
2016-10-21T01:17:21.735Z,9.1
2016-10-21T01:17:31.728Z,9.1
2016-10-21T01:17:41.722Z,9.1
2016-10-21T01:17:51.717Z,9.1
2016-10-21T01:18:01.712Z,9.1
2016-10-21T01:18:11.732Z,9.1
2016-10-21T01:18:21.706Z,9.1
2016-10-21T01:18:31.693Z,9.1
2016-10-21T01:18:41.688Z,9.1
2016-10-21T01:18:51.682Z,9.1
2016-10-21T01:19:01.676Z,9.1
2016-10-21T01:19:12.011Z,9.1
2016-10-21T01:19:21.663Z,9.1
2016-10-21T01:19:31.659Z,9.1
2016-10-21T01:19:41.655Z,9.1
2016-10-21T01:19:51.646Z,9.1
2016-10-21T01:20:01.642Z,9.1
2016-10-21T01:20:11.636Z,9.1
2016-10-21T01:20:21.629Z,9.1
2016-10-21T01:20:31.624Z,9.1
2016-10-21T01:20:41.617Z,9.1
2016-10-21T01:20:51.613Z,9.1
2016-10-21T01:21:01.607Z,9.1
2016-10-21T01:21:11.600Z,9.1
2016-10-21T01:21:21.600Z,9.1
2016-10-21T01:21:31.590Z,9.1
2016-10-21T01:21:41.584Z,9.1
2016-10-21T01:21:51.577Z,9.1
2016-10-21T01:22:01.570Z,9.1
2016-10-21T01:22:11.565Z,9.1
2016-10-21T01:22:21.559Z,9.1
2016-10-21T01:22:31.553Z,9.1
2016-10-21T01:22:41.549Z,9.2
2016-10-21T01:22:51.544Z,9.2
2016-10-21T01:23:01.536Z,9.2
2016-10-21T01:23:11.532Z,9.2
2016-10-21T01:23:21.524Z,9.2
2016-10-21T01:23:31.518Z,9.2
2016-10-21T01:23:41.513Z,9.2
2016-10-21T01:23:51.509Z,9.2
2016-10-21T01:24:01.501Z,9.2
2016-10-21T01:24:11.498Z,9.2
2016-10-21T01:24:21.489Z,9.2
2016-10-21T01:24:31.485Z,9.2
2016-10-21T01:24:41.475Z,9.2
2016-10-21T01:24:51.472Z,9.2
2016-10-21T01:25:01.802Z,9.2
2016-10-21T01:25:11.460Z,9.2
2016-10-21T01:25:21.455Z,9.2
2016-10-21T01:25:31.449Z,9.2
2016-10-21T01:25:41.444Z,9.2
2016-10-21T01:25:51.437Z,9.2
2016-10-21T01:26:01.431Z,9.2
2016-10-21T01:26:11.427Z,9.2
2016-10-21T01:26:21.420Z,9.2
2016-10-21T01:26:31.413Z,9.2
2016-10-21T01:26:41.408Z,9.2
2016-10-21T01:26:51.402Z,9.2
2016-10-21T01:27:01.770Z,9.2
2016-10-21T01:27:11.390Z,9.2
2016-10-21T01:27:21.387Z,9.2
2016-10-21T01:27:31.379Z,9.2
2016-10-21T01:27:41.372Z,9.2
2016-10-21T01:27:51.366Z,9.2
2016-10-21T01:28:01.359Z,9.2
2016-10-21T01:28:11.361Z,9.2
2016-10-21T01:28:21.349Z,9.2
2016-10-21T01:28:31.678Z,9.2
2016-10-21T01:28:41.336Z,9.2
2016-10-21T01:28:51.331Z,9.2
2016-10-21T01:29:01.325Z,9.2
2016-10-21T01:29:11.320Z,9.2
2016-10-21T01:29:21.314Z,9.2
2016-10-21T01:29:31.308Z,9.2
2016-10-21T01:29:41.302Z,9.2
2016-10-21T01:29:51.297Z,9.2
2016-10-21T01:30:01.289Z,9.2
2016-10-21T01:30:11.286Z,9.2
2016-10-21T01:30:21.286Z,9.2
2016-10-21T01:30:31.270Z,9.2
2016-10-21T01:30:41.269Z,9.2
2016-10-21T01:30:51.261Z,9.2
2016-10-21T01:31:01.255Z,9.2
2016-10-21T01:31:11.248Z,9.2
2016-10-21T01:31:21.244Z,9.2
2016-10-21T01:31:31.238Z,9.2
2016-10-21T01:31:41.232Z,9.2
2016-10-21T01:31:51.229Z,9.2
2016-10-21T01:32:01.222Z,9.2
2016-10-21T01:32:11.218Z,9.2
2016-10-21T01:32:21.208Z,9.2
2016-10-21T01:32:31.202Z,9.3
2016-10-21T01:32:41.196Z,9.3
2016-10-21T01:32:51.190Z,9.3
2016-10-21T01:33:01.190Z,9.3
2016-10-21T01:33:11.180Z,9.3
2016-10-21T01:33:21.173Z,9.2
2016-10-21T01:33:31.168Z,9.2
2016-10-21T01:33:41.162Z,9.2
2016-10-21T01:33:51.156Z,9.3
2016-10-21T01:34:01.149Z,9.3
2016-10-21T01:34:11.143Z,9.3
2016-10-21T01:34:21.136Z,9.3
2016-10-21T01:34:31.133Z,9.3
2016-10-21T01:34:41.125Z,9.3
2016-10-21T01:34:51.120Z,9.3
2016-10-21T01:35:01.116Z,9.3
2016-10-21T01:35:11.109Z,9.3
2016-10-21T01:35:21.103Z,9.3
2016-10-21T01:35:31.096Z,9.3
2016-10-21T01:35:41.092Z,9.3
2016-10-21T01:35:51.086Z,9.3
2016-10-21T01:36:01.079Z,9.2
2016-10-21T01:36:11.073Z,9.3
2016-10-21T01:36:21.067Z,9.3
2016-10-21T01:36:31.062Z,9.3
2016-10-21T01:36:41.055Z,9.3
2016-10-21T01:36:51.050Z,9.3
2016-10-21T01:37:01.045Z,9.3
2016-10-21T01:37:11.038Z,9.3
2016-10-21T01:37:21.032Z,9.3
2016-10-21T01:37:31.028Z,9.3
2016-10-21T01:37:41.020Z,9.3
2016-10-21T01:37:51.016Z,9.3
2016-10-21T01:38:01.009Z,9.3
2016-10-21T01:38:11.033Z,9.3
2016-10-21T01:38:20.998Z,9.3
2016-10-21T01:38:31.325Z,9.3
2016-10-21T01:38:40.986Z,9.3
2016-10-21T01:38:50.984Z,9.3
2016-10-21T01:39:01.308Z,9.3
2016-10-21T01:39:10.971Z,9.3
2016-10-21T01:39:20.962Z,9.2
2016-10-21T01:39:30.957Z,9.3
2016-10-21T01:39:40.950Z,9.3
2016-10-21T01:39:50.945Z,9.3
2016-10-21T01:40:00.940Z,9.3
2016-10-21T01:40:10.932Z,9.3
2016-10-21T01:40:20.928Z,9.3
2016-10-21T01:40:31.255Z,9.3
2016-10-21T01:40:40.916Z,9.3
2016-10-21T01:40:50.909Z,9.3
2016-10-21T01:41:01.239Z,9.3
2016-10-21T01:41:10.897Z,9.3
2016-10-21T01:41:20.928Z,9.3
2016-10-21T01:41:30.885Z,9.3
2016-10-21T01:41:40.878Z,9.3
2016-10-21T01:41:50.875Z,9.3
2016-10-21T01:42:00.868Z,9.3
2016-10-21T01:42:10.866Z,9.3
2016-10-21T01:42:20.858Z,9.3
2016-10-21T01:42:31.224Z,9.3
2016-10-21T01:42:40.848Z,9.3
2016-10-21T01:42:50.868Z,9.3
2016-10-21T01:43:00.831Z,9.3
2016-10-21T01:43:10.827Z,9.3
2016-10-21T01:43:20.821Z,9.3
2016-10-21T01:43:30.817Z,9.3
2016-10-21T01:43:40.811Z,9.3
2016-10-21T01:43:50.803Z,9.3
2016-10-21T01:44:01.135Z,9.2
2016-10-21T01:44:10.793Z,9.2
2016-10-21T01:44:20.819Z,9.3
2016-10-21T01:44:30.780Z,9.3
2016-10-21T01:44:40.774Z,9.3
2016-10-21T01:44:50.769Z,9.3
2016-10-21T01:45:00.763Z,9.3
2016-10-21T01:45:10.757Z,9.3
2016-10-21T01:45:20.752Z,9.3
2016-10-21T01:45:30.747Z,9.3
2016-10-21T01:45:40.738Z,9.3
2016-10-21T01:45:50.733Z,9.3
2016-10-21T01:46:00.726Z,9.3
2016-10-21T01:46:10.722Z,9.3
2016-10-21T01:46:20.716Z,9.3
2016-10-21T01:46:30.709Z,9.3
2016-10-21T01:46:40.705Z,9.3
2016-10-21T01:46:50.701Z,9.3
2016-10-21T01:47:00.696Z,9.3
2016-10-21T01:47:10.694Z,9.3
2016-10-21T01:47:20.680Z,9.3
2016-10-21T01:47:30.673Z,9.3
2016-10-21T01:47:40.668Z,9.3
2016-10-21T01:47:50.664Z,9.3
2016-10-21T01:48:00.659Z,9.3
2016-10-21T01:48:10.652Z,9.3
2016-10-21T01:48:20.647Z,9.3
2016-10-21T01:48:30.641Z,9.3
2016-10-21T01:48:40.672Z,9.3
2016-10-21T01:48:50.627Z,9.3
2016-10-21T01:49:00.622Z,9.3
2016-10-21T01:49:10.615Z,9.3
2016-10-21T01:49:20.611Z,9.3
2016-10-21T01:49:30.605Z,9.3
2016-10-21T01:49:40.598Z,9.3
2016-10-21T01:49:50.594Z,9.3
2016-10-21T01:50:00.587Z,9.3
2016-10-21T01:50:10.581Z,9.3
2016-10-21T01:50:20.575Z,9.3
2016-10-21T01:50:30.569Z,9.3
2016-10-21T01:50:40.563Z,9.3
2016-10-21T01:50:50.559Z,9.3
2016-10-21T01:51:00.553Z,9.3
2016-10-21T01:51:10.546Z,9.3
2016-10-21T01:51:20.540Z,9.3
2016-10-21T01:51:30.537Z,9.3
2016-10-21T01:51:40.529Z,9.3
2016-10-21T01:51:50.523Z,9.3
2016-10-21T01:52:00.520Z,9.3
2016-10-21T01:52:10.511Z,9.3
2016-10-21T01:52:20.506Z,9.3
2016-10-21T01:52:30.499Z,9.3
2016-10-21T01:52:40.493Z,9.4
2016-10-21T01:52:50.487Z,9.3
2016-10-21T01:53:00.482Z,9.3
2016-10-21T01:53:10.476Z,9.3
2016-10-21T01:53:20.471Z,9.3
2016-10-21T01:53:30.464Z,9.3
2016-10-21T01:53:40.456Z,9.3
2016-10-21T01:53:50.453Z,9.3
2016-10-21T01:54:00.444Z,9.3
2016-10-21T01:54:10.441Z,9.3
2016-10-21T01:54:20.459Z,9.3
2016-10-21T01:54:30.434Z,9.3
2016-10-21T01:54:40.424Z,9.3
2016-10-21T01:54:50.417Z,9.3
2016-10-21T01:55:00.411Z,9.3
2016-10-21T01:55:10.431Z,9.3
2016-10-21T01:55:20.398Z,9.3
2016-10-21T01:55:30.394Z,9.3
2016-10-21T01:55:40.387Z,9.3
2016-10-21T01:55:50.380Z,9.3
2016-10-21T01:56:00.377Z,9.3
2016-10-21T01:56:10.370Z,9.3
2016-10-21T01:56:20.362Z,9.3
2016-10-21T01:56:30.359Z,9.3
2016-10-21T01:56:40.353Z,9.3
2016-10-21T01:56:50.346Z,9.3
2016-10-21T01:57:00.340Z,9.3
2016-10-21T01:57:10.336Z,9.3
2016-10-21T01:57:20.332Z,9.3
2016-10-21T01:57:30.324Z,9.3
2016-10-21T01:57:40.345Z,9.3
2016-10-21T01:57:50.310Z,9.3
2016-10-21T01:58:00.305Z,9.3
2016-10-21T01:58:10.317Z,9.3
2016-10-21T01:58:20.295Z,9.3
2016-10-21T01:58:30.289Z,9.3
2016-10-21T01:58:40.309Z,9.3
2016-10-21T01:58:50.276Z,9.3
2016-10-21T01:59:00.271Z,9.3
2016-10-21T01:59:10.265Z,9.3
2016-10-21T01:59:20.259Z,9.3
2016-10-21T01:59:30.253Z,9.3
2016-10-21T01:59:40.246Z,9.3
2016-10-21T01:59:50.240Z,9.3
2016-10-21T02:00:00.235Z,9.3
2016-10-21T02:00:10.253Z,9.3
2016-10-21T02:00:20.224Z,9.2
2016-10-21T02:00:30.221Z,9.2
2016-10-21T02:00:40.214Z,9.3
2016-10-21T02:00:50.205Z,9.3
2016-10-21T02:01:00.200Z,9.3
2016-10-21T02:01:10.220Z,9.2
2016-10-21T02:01:20.191Z,9.3
2016-10-21T02:01:30.184Z,9.3
2016-10-21T02:01:40.176Z,9.3
2016-10-21T02:01:50.171Z,9.3
2016-10-21T02:02:00.177Z,9.3
2016-10-21T02:02:10.161Z,9.3
2016-10-21T02:02:20.153Z,9.3
2016-10-21T02:02:30.147Z,9.3
2016-10-21T02:02:40.142Z,9.3
2016-10-21T02:02:50.135Z,9.3
2016-10-21T02:03:00.129Z,9.3
2016-10-21T02:03:10.125Z,9.3
2016-10-21T02:03:20.117Z,9.3
2016-10-21T02:03:30.129Z,9.3
2016-10-21T02:03:40.110Z,9.3
2016-10-21T02:03:50.100Z,9.3
2016-10-21T02:04:00.094Z,9.3
2016-10-21T02:04:10.089Z,9.3
2016-10-21T02:04:20.083Z,9.3
2016-10-21T02:04:30.077Z,9.3
2016-10-21T02:04:40.070Z,9.3
2016-10-21T02:04:50.066Z,9.3
2016-10-21T02:05:00.061Z,9.3
2016-10-21T02:05:10.056Z,9.3
2016-10-21T02:05:20.048Z,9.3
2016-10-21T02:05:30.043Z,9.3
2016-10-21T02:05:40.034Z,9.3
2016-10-21T02:05:50.030Z,9.3
2016-10-21T02:06:00.029Z,9.3
2016-10-21T02:06:10.018Z,9.3
2016-10-21T02:06:20.015Z,9.3
2016-10-21T02:06:30.005Z,9.3
2016-10-21T02:06:40.003Z,9.3
2016-10-21T02:06:49.997Z,9.3
2016-10-21T02:06:59.989Z,9.3
2016-10-21T02:07:10.016Z,9.3
2016-10-21T02:07:19.977Z,9.3
2016-10-21T02:07:29.971Z,9.3
2016-10-21T02:07:39.966Z,9.3
2016-10-21T02:07:49.960Z,9.3
2016-10-21T02:07:59.959Z,9.3
2016-10-21T02:08:09.947Z,9.3
2016-10-21T02:08:19.941Z,9.3
2016-10-21T02:08:29.936Z,9.3
2016-10-21T02:08:39.930Z,9.3
2016-10-21T02:08:49.924Z,9.3
2016-10-21T02:08:59.919Z,9.3
2016-10-21T02:09:09.914Z,9.3
2016-10-21T02:09:19.908Z,9.3
2016-10-21T02:09:29.901Z,9.3
2016-10-21T02:09:39.895Z,9.3
2016-10-21T02:09:49.890Z,9.3
2016-10-21T02:09:59.882Z,9.3
2016-10-21T02:10:09.878Z,9.3
2016-10-21T02:10:19.872Z,9.3
2016-10-21T02:10:29.865Z,9.3
2016-10-21T02:10:39.859Z,9.3
2016-10-21T02:10:49.904Z,9.2
2016-10-21T02:10:59.849Z,9.2
2016-10-21T02:11:09.872Z,9.2
2016-10-21T02:11:19.834Z,9.3
2016-10-21T02:11:29.830Z,9.3
2016-10-21T02:11:39.824Z,9.2
2016-10-21T02:11:49.818Z,9.2
2016-10-21T02:11:59.814Z,9.2
2016-10-21T02:12:09.809Z,9.2
2016-10-21T02:12:19.801Z,9.2
2016-10-21T02:12:29.797Z,9.3
2016-10-21T02:12:39.788Z,9.2
2016-10-21T02:12:49.783Z,9.3
2016-10-21T02:12:59.777Z,9.3
2016-10-21T02:13:09.773Z,9.3
2016-10-21T02:13:19.767Z,9.3
2016-10-21T02:13:29.761Z,9.2
2016-10-21T02:13:39.754Z,9.3
2016-10-21T02:13:49.748Z,9.3
2016-10-21T02:13:59.744Z,9.3
2016-10-21T02:14:09.736Z,9.3
2016-10-21T02:14:19.731Z,9.3
2016-10-21T02:14:29.724Z,9.3
2016-10-21T02:14:39.719Z,9.3
2016-10-21T02:14:49.712Z,9.3
2016-10-21T02:14:59.707Z,9.3
2016-10-21T02:15:09.701Z,9.3
2016-10-21T02:15:19.696Z,9.3
2016-10-21T02:15:29.690Z,9.3
2016-10-21T02:15:39.684Z,9.3
2016-10-21T02:15:49.675Z,9.3
2016-10-21T02:15:59.672Z,9.3
2016-10-21T02:16:09.666Z,9.3
2016-10-21T02:16:19.661Z,9.3
2016-10-21T02:16:29.654Z,9.3
2016-10-21T02:16:39.649Z,9.3
2016-10-21T02:16:49.689Z,9.3
2016-10-21T02:16:59.655Z,9.3
2016-10-21T02:17:09.649Z,9.4
2016-10-21T02:17:19.642Z,9.3
2016-10-21T02:17:29.637Z,9.3
2016-10-21T02:17:39.669Z,9.3